Meadow, South Dakota
Current Conditions -  °F | °C
As of 11:53 AM on Tuesday 21 Oct 2014 (Local Time) from KHEI Reporting Station
Clear Clear  
Wind Chill: 70°   Ceiling: Unl
Heat Index: 70°   Visibility: 10mi
Dew Point: 44°   Wind: 14mph
Humidity: 39%   Direction: 170°S
Pressure: 29.73"   Gusts: 18mph
Location:  45.53°N, 102.22°W
Report Text: KHEI 211753Z AUTO 17012G16KT 10SM CLR 21/07 A2973 RMK AO2 SLP060 T02110067 10211 20028 58017
Loading
Personal Weather Stations






























Interactive Weather Map
Tropical Storm Tracking
New forecast layout! Learn more

10-Day Weather Forecast

Advertisements
Track Severe Weather on mobile